Time;durP1;ratioP1;P1;durP2;ratioP2;P2;SDS_P1;SDS_P2;PMS_P1;PMS_P2;Temp;Humidity;BMP_temperature;BMP_pressure;BME280_temperature;BME280_humidity;BME280_pressure;Samples;Min_cycle;Max_cycle;Signal;HPM_P1;HPM_P2
2023/08/19 00:01:18;;;;;;;2.80;1.67;;;20.30;99.90;;;;;;5060199;28;20101;-69
2023/08/19 00:03:44;;;;;;;2.92;1.52;;;20.30;99.90;;;;;;5067673;28;20550;-69
2023/08/19 00:06:12;;;;;;;2.35;1.75;;;20.20;99.90;;;;;;5066051;28;20060;-70
2023/08/19 00:08:38;;;;;;;6.50;1.73;;;20.20;99.90;;;;;;5065211;28;20484;-69
2023/08/19 00:11:04;;;;;;;3.00;1.90;;;20.20;99.90;;;;;;5066961;28;20076;-69
2023/08/19 00:13:31;;;;;;;4.00;2.25;;;20.20;99.90;;;;;;5065058;28;20039;-69
2023/08/19 00:15:57;;;;;;;3.38;1.60;;;20.20;99.90;;;;;;5063217;28;20132;-69
2023/08/19 00:18:23;;;;;;;2.90;1.55;;;20.20;99.90;;;;;;5068158;28;20042;-69
2023/08/19 00:20:50;;;;;;;2.45;1.77;;;20.20;99.90;;;;;;5043335;28;20491;-69
2023/08/19 00:23:16;;;;;;;2.83;1.70;;;20.20;99.90;;;;;;5067081;28;20052;-70
2023/08/19 00:25:42;;;;;;;6.82;2.20;;;20.20;99.90;;;;;;5065281;28;20044;-70
2023/08/19 00:28:08;;;;;;;2.78;1.92;;;20.10;99.90;;;;;;5061855;28;20043;-69
2023/08/19 00:30:34;;;;;;;3.22;1.77;;;20.10;99.90;;;;;;5067758;28;20068;-69
2023/08/19 00:32:59;;;;;;;2.58;1.90;;;20.10;99.90;;;;;;5067691;28;20660;-69
2023/08/19 00:35:25;;;;;;;3.83;1.88;;;20.10;99.90;;;;;;5067779;28;20094;-70
2023/08/19 00:37:51;;;;;;;3.53;2.28;;;20.10;99.90;;;;;;5063760;28;20037;-70
2023/08/19 00:40:17;;;;;;;3.60;1.98;;;20.10;99.90;;;;;;5068210;28;20076;-69
2023/08/19 00:42:43;;;;;;;2.95;1.65;;;20.10;99.90;;;;;;5071015;28;20036;-69
2023/08/19 00:45:09;;;;;;;2.78;1.90;;;20.10;99.90;;;;;;5072474;28;20041;-69
2023/08/19 00:47:36;;;;;;;3.65;1.83;;;20.00;99.90;;;;;;5065589;28;20113;-69
2023/08/19 00:50:09;;;;;;;1.92;1.30;;;20.10;99.90;;;;;;5070776;28;20174;-69
2023/08/19 00:52:36;;;;;;;2.55;1.75;;;20.00;99.90;;;;;;5069583;28;20098;-69
2023/08/19 00:55:04;;;;;;;3.22;1.58;;;20.00;99.90;;;;;;5069712;28;20049;-69
2023/08/19 00:57:32;;;;;;;3.95;2.03;;;20.10;99.90;;;;;;5068336;28;20143;-69
2023/08/19 00:59:57;;;;;;;3.55;2.22;;;20.10;99.90;;;;;;5070099;28;20400;-69
2023/08/19 01:02:23;;;;;;;3.50;1.70;;;20.00;99.90;;;;;;5066919;28;20044;-69
2023/08/19 01:04:49;;;;;;;3.30;2.03;;;20.00;99.90;;;;;;5070106;28;20039;-69
2023/08/19 01:07:15;;;;;;;2.30;1.70;;;20.00;99.90;;;;;;5068746;28;20119;-70
2023/08/19 01:09:50;;;;;;;2.38;1.65;;;20.00;99.90;;;;;;5072538;28;20435;-69
2023/08/19 01:12:40;;;;;;;3.65;1.52;;;20.00;99.90;;;;;;5068291;28;20067;-69
2023/08/19 01:15:21;;;;;;;2.58;1.55;;;20.00;99.90;;;;;;5065712;28;20485;-69
2023/08/19 01:17:51;;;;;;;2.58;1.65;;;19.90;99.90;;;;;;5063336;28;20041;-69
2023/08/19 01:20:18;;;;;;;1.98;1.33;;;19.90;99.90;;;;;;5068973;28;20117;-69
2023/08/19 01:22:56;;;;;;;4.18;2.13;;;19.90;99.90;;;;;;5069068;28;20048;-70
2023/08/19 01:25:22;;;;;;;3.50;1.90;;;20.00;99.90;;;;;;5070226;28;20429;-70
2023/08/19 01:27:48;;;;;;;3.65;1.48;;;20.00;99.90;;;;;;5065788;28;20056;-69
2023/08/19 01:30:14;;;;;;;3.05;1.73;;;20.00;99.90;;;;;;5073099;28;20029;-69
2023/08/19 01:32:42;;;;;;;2.08;1.48;;;20.00;99.90;;;;;;5065450;28;20043;-69
2023/08/19 01:35:09;;;;;;;2.25;1.10;;;20.00;99.90;;;;;;5065065;28;20041;-69
2023/08/19 01:37:45;;;;;;;4.78;1.95;;;20.00;99.90;;;;;;5069316;28;20037;-70
2023/08/19 01:40:13;;;;;;;2.72;1.75;;;20.00;99.90;;;;;;5052268;28;20049;-70
2023/08/19 01:42:39;;;;;;;3.33;1.88;;;20.00;99.90;;;;;;5064431;28;20434;-70
2023/08/19 01:45:07;;;;;;;2.83;1.75;;;20.00;99.90;;;;;;5068670;28;20392;-70
2023/08/19 01:47:38;;;;;;;3.20;1.38;;;20.00;99.90;;;;;;5067264;28;20586;-69
2023/08/19 01:50:05;;;;;;;3.42;1.83;;;20.00;99.90;;;;;;5067906;28;20090;-69
2023/08/19 01:52:32;;;;;;;2.03;1.30;;;20.00;99.90;;;;;;5065865;28;20059;-69
2023/08/19 01:54:58;;;;;;;3.35;1.60;;;20.00;99.90;;;;;;5068873;28;20154;-69
2023/08/19 01:57:27;;;;;;;2.85;1.85;;;20.00;99.90;;;;;;5068598;28;20052;-69
2023/08/19 01:59:56;;;;;;;3.33;1.88;;;20.00;99.90;;;;;;5069153;28;20040;-69
2023/08/19 02:02:23;;;;;;;3.00;1.77;;;20.00;99.90;;;;;;5063599;28;20047;-69
2023/08/19 02:04:49;;;;;;;3.30;1.50;;;20.00;99.90;;;;;;5067143;28;20075;-69
2023/08/19 02:07:15;;;;;;;3.95;2.17;;;20.00;99.90;;;;;;5071152;28;20551;-69
2023/08/19 02:09:41;;;;;;;1.85;1.42;;;20.00;99.90;;;;;;5067336;28;20443;-69
2023/08/19 02:12:07;;;;;;;3.38;2.03;;;20.00;99.90;;;;;;5062013;28;20484;-70
2023/08/19 02:14:33;;;;;;;3.47;1.95;;;19.90;99.90;;;;;;5068303;28;20095;-70
2023/08/19 02:16:59;;;;;;;4.03;2.05;;;20.00;99.90;;;;;;5064329;28;20130;-69
2023/08/19 02:19:24;;;;;;;2.08;1.15;;;19.90;99.90;;;;;;5067070;28;20036;-69
2023/08/19 02:21:50;;;;;;;5.03;1.80;;;19.90;99.90;;;;;;5062076;28;20044;-70
2023/08/19 02:24:16;;;;;;;1.83;1.23;;;20.00;99.90;;;;;;5064672;28;20033;-69
2023/08/19 02:26:41;;;;;;;2.80;1.52;;;20.00;99.90;;;;;;5067529;28;20113;-69
2023/08/19 02:29:07;;;;;;;1.67;1.58;;;19.90;99.90;;;;;;5071336;28;20040;-69
2023/08/19 02:31:33;;;;;;;2.42;1.77;;;19.90;99.90;;;;;;5064153;28;20032;-69
2023/08/19 02:33:58;;;;;;;3.22;1.65;;;19.90;99.90;;;;;;5066294;28;20040;-69
2023/08/19 02:36:24;;;;;;;2.95;1.75;;;19.90;99.90;;;;;;5068868;28;20437;-69
2023/08/19 02:38:50;;;;;;;2.33;1.55;;;19.90;99.90;;;;;;5069195;28;20119;-69
2023/08/19 02:41:15;;;;;;;3.13;2.08;;;19.90;99.90;;;;;;5062285;28;20071;-69
2023/08/19 02:43:41;;;;;;;4.00;2.13;;;19.90;99.90;;;;;;5068068;28;20044;-69
2023/08/19 02:46:07;;;;;;;2.70;1.77;;;19.90;99.90;;;;;;5063923;28;20075;-70
2023/08/19 02:48:34;;;;;;;3.47;2.13;;;19.90;99.90;;;;;;5067740;28;20499;-69
2023/08/19 02:50:59;;;;;;;2.63;1.50;;;19.90;99.90;;;;;;5066950;28;20082;-68
2023/08/19 02:53:26;;;;;;;2.60;1.67;;;19.90;99.90;;;;;;5067552;28;20110;-69
2023/08/19 02:55:52;;;;;;;3.40;1.67;;;19.90;99.90;;;;;;5052228;28;20055;-69
2023/08/19 02:58:18;;;;;;;2.38;1.63;;;19.90;99.90;;;;;;5068835;28;20094;-68
2023/08/19 03:00:48;;;;;;;2.15;1.60;;;19.90;99.90;;;;;;5068682;28;20040;-69
2023/08/19 03:03:13;;;;;;;3.08;1.45;;;19.90;99.90;;;;;;5064789;28;20470;-69
2023/08/19 03:05:39;;;;;;;2.10;1.30;;;19.90;99.90;;;;;;5067486;28;20075;-69
2023/08/19 03:08:07;;;;;;;2.63;1.73;;;19.90;99.90;;;;;;5065708;28;20259;-69
2023/08/19 03:10:37;;;;;;;2.30;1.33;;;19.90;99.90;;;;;;5050813;28;20718;-69
2023/08/19 03:13:04;;;;;;;2.78;1.75;;;19.90;99.90;;;;;;5062625;28;20044;-69
2023/08/19 03:15:31;;;;;;;4.55;1.70;;;19.90;99.90;;;;;;5068973;28;20074;-69
2023/08/19 03:17:56;;;;;;;2.47;1.27;;;19.90;99.90;;;;;;5047218;28;20040;-68
2023/08/19 03:20:22;;;;;;;2.28;1.48;;;19.90;99.90;;;;;;5065378;28;20036;-67
2023/08/19 03:22:48;;;;;;;3.55;2.20;;;19.90;99.90;;;;;;5067930;28;20459;-68
2023/08/19 03:25:14;;;;;;;2.70;1.83;;;19.90;99.90;;;;;;5066845;28;20045;-68
2023/08/19 03:27:40;;;;;;;3.55;1.77;;;19.90;99.90;;;;;;5067410;28;20082;-68
2023/08/19 03:30:06;;;;;;;2.90;1.27;;;19.90;99.90;;;;;;5067612;28;20072;-68
2023/08/19 03:32:32;;;;;;;4.03;1.60;;;19.90;99.90;;;;;;5065113;28;20036;-68
2023/08/19 03:34:58;;;;;;;3.00;1.52;;;19.90;99.90;;;;;;5064788;28;20127;-68
2023/08/19 03:37:24;;;;;;;3.38;1.63;;;19.90;99.90;;;;;;5064076;28;20041;-68
2023/08/19 03:39:50;;;;;;;3.40;1.70;;;19.90;99.90;;;;;;5068001;28;20094;-68
2023/08/19 03:42:17;;;;;;;2.67;1.17;;;19.90;99.90;;;;;;5067763;28;20048;-68
2023/08/19 03:44:42;;;;;;;2.58;1.77;;;19.90;99.90;;;;;;5070074;28;21365;-68
2023/08/19 03:47:13;;;;;;;2.75;1.63;;;19.90;99.90;;;;;;5065521;28;20044;-68
2023/08/19 03:49:39;;;;;;;2.40;1.20;;;19.90;99.90;;;;;;5067783;28;20032;-68
2023/08/19 03:52:06;;;;;;;4.40;1.35;;;19.90;99.90;;;;;;5067458;28;20052;-68
2023/08/19 03:54:31;;;;;;;2.85;1.60;;;19.90;99.90;;;;;;5067204;28;20044;-68
2023/08/19 03:56:57;;;;;;;2.55;1.50;;;19.90;99.90;;;;;;5065749;28;20055;-68
2023/08/19 03:59:23;;;;;;;4.05;1.85;;;19.90;99.90;;;;;;5068916;28;20040;-68
2023/08/19 04:01:49;;;;;;;2.53;1.02;;;19.80;99.90;;;;;;5064199;28;20045;-68
2023/08/19 04:04:14;;;;;;;2.20;1.52;;;19.90;99.90;;;;;;5066823;28;20098;-69
2023/08/19 04:06:40;;;;;;;2.78;1.58;;;19.80;99.90;;;;;;5071659;28;20040;-68
2023/08/19 04:09:07;;;;;;;2.20;1.48;;;19.90;99.90;;;;;;5070925;28;20040;-68
2023/08/19 04:11:33;;;;;;;3.53;1.70;;;19.80;99.90;;;;;;5067143;28;20096;-68
2023/08/19 04:13:58;;;;;;;2.75;1.30;;;19.80;99.90;;;;;;5070973;28;20039;-68
2023/08/19 04:16:24;;;;;;;2.40;1.50;;;19.80;99.90;;;;;;5069584;28;20052;-68
2023/08/19 04:18:50;;;;;;;2.92;1.63;;;19.80;99.90;;;;;;5064556;28;20037;-68
2023/08/19 04:21:17;;;;;;;4.00;2.08;;;19.90;99.90;;;;;;5071876;28;20053;-68
2023/08/19 04:23:43;;;;;;;2.78;1.35;;;19.80;99.90;;;;;;5069349;28;20501;-68
2023/08/19 04:26:09;;;;;;;1.95;1.42;;;19.80;99.90;;;;;;5071650;28;20122;-68
2023/08/19 04:28:35;;;;;;;3.47;1.40;;;19.90;99.90;;;;;;5070116;28;20079;-68
2023/08/19 04:31:05;;;;;;;2.30;1.33;;;19.90;99.90;;;;;;5070738;28;20032;-69
2023/08/19 04:33:31;;;;;;;2.78;1.40;;;19.90;99.90;;;;;;5066591;28;20135;-68
2023/08/19 04:35:57;;;;;;;3.10;1.60;;;19.90;99.90;;;;;;5070989;28;20086;-68
2023/08/19 04:38:23;;;;;;;2.13;0.95;;;19.90;99.90;;;;;;5068151;28;20032;-68
2023/08/19 04:40:50;;;;;;;1.80;1.02;;;19.90;99.90;;;;;;5071447;28;20428;-68
2023/08/19 04:43:18;;;;;;;1.50;1.00;;;19.90;99.90;;;;;;5051230;28;20059;-68
2023/08/19 04:45:44;;;;;;;2.20;1.08;;;19.90;99.90;;;;;;5069286;28;20736;-68
2023/08/19 04:48:10;;;;;;;3.05;1.55;;;19.90;99.90;;;;;;5069718;28;20044;-68
2023/08/19 04:50:35;;;;;;;1.33;0.70;;;20.00;99.90;;;;;;5071196;28;20090;-69
2023/08/19 04:53:01;;;;;;;2.30;1.25;;;20.00;99.90;;;;;;5070660;28;20039;-68
2023/08/19 04:55:27;;;;;;;1.60;1.10;;;20.10;99.90;;;;;;5070421;28;20055;-68
2023/08/19 04:57:53;;;;;;;3.63;1.58;;;20.10;99.90;;;;;;5051651;28;20117;-68
2023/08/19 05:00:19;;;;;;;2.67;1.50;;;20.20;99.90;;;;;;5068954;28;20047;-68
2023/08/19 05:02:44;;;;;;;1.88;1.02;;;20.20;99.90;;;;;;5067784;28;20046;-68
2023/08/19 05:05:10;;;;;;;2.28;1.17;;;20.20;99.90;;;;;;5070642;28;20421;-68
2023/08/19 05:07:36;;;;;;;1.77;1.02;;;20.40;99.90;;;;;;5068809;28;20044;-68
2023/08/19 05:10:02;;;;;;;2.42;1.45;;;20.40;99.90;;;;;;5069931;28;20074;-68
2023/08/19 05:12:27;;;;;;;3.45;1.55;;;20.40;99.90;;;;;;5067433;28;20090;-68
2023/08/19 05:14:53;;;;;;;4.32;1.52;;;20.50;99.90;;;;;;5066794;28;20061;-68
2023/08/19 05:17:19;;;;;;;3.28;1.35;;;20.50;99.90;;;;;;5068268;28;20477;-68
2023/08/19 05:19:45;;;;;;;3.10;1.20;;;20.50;99.90;;;;;;5066909;28;20076;-69
2023/08/19 05:22:11;;;;;;;1.55;0.98;;;20.60;99.90;;;;;;5069940;28;20185;-69
2023/08/19 05:24:37;;;;;;;2.15;1.35;;;20.60;99.90;;;;;;5069216;28;20119;-68
2023/08/19 05:27:02;;;;;;;1.45;1.00;;;20.60;99.90;;;;;;5071495;28;20059;-68
2023/08/19 05:29:28;;;;;;;3.00;1.35;;;20.60;99.90;;;;;;5069386;28;20064;-69
2023/08/19 05:31:55;;;;;;;2.00;1.35;;;20.60;99.90;;;;;;5070290;28;20102;-69
2023/08/19 05:34:21;;;;;;;1.88;1.25;;;20.60;99.90;;;;;;5070635;28;20033;-68
2023/08/19 05:36:47;;;;;;;2.67;0.93;;;20.70;99.90;;;;;;5069537;28;20698;-69
2023/08/19 05:39:13;;;;;;;1.95;1.27;;;20.70;99.90;;;;;;5068569;28;20052;-69
2023/08/19 05:41:38;;;;;;;3.28;1.15;;;20.70;99.90;;;;;;5072102;28;20043;-69
2023/08/19 05:44:05;;;;;;;1.55;0.90;;;20.70;99.90;;;;;;5072547;28;20120;-69
2023/08/19 05:46:30;;;;;;;3.10;1.30;;;20.80;99.90;;;;;;5069086;28;20040;-68
2023/08/19 05:48:56;;;;;;;3.55;1.25;;;20.70;99.90;;;;;;5069297;28;20036;-69
2023/08/19 05:51:22;;;;;;;2.83;1.23;;;20.80;99.90;;;;;;5070690;28;20111;-69
2023/08/19 05:53:48;;;;;;;2.47;1.20;;;20.80;99.90;;;;;;5070426;28;20484;-69
2023/08/19 05:56:13;;;;;;;2.38;1.50;;;20.70;99.90;;;;;;5067129;28;20064;-69
2023/08/19 05:58:39;;;;;;;1.70;0.90;;;20.80;99.90;;;;;;5071564;28;20486;-69
2023/08/19 06:01:08;;;;;;;2.38;1.23;;;20.80;99.90;;;;;;5069789;28;20048;-68
2023/08/19 06:03:34;;;;;;;1.75;0.98;;;20.80;99.90;;;;;;5068401;28;20040;-68
2023/08/19 06:06:06;;;;;;;2.05;0.98;;;20.80;99.90;;;;;;5067388;28;20040;-68
2023/08/19 06:08:33;;;;;;;1.70;1.05;;;20.90;99.90;;;;;;5061443;28;20032;-68
2023/08/19 06:11:05;;;;;;;2.13;1.10;;;20.90;99.90;;;;;;5049629;28;20511;-69
2023/08/19 06:13:31;;;;;;;2.25;1.00;;;20.90;99.90;;;;;;5066770;28;20369;-68
2023/08/19 06:15:57;;;;;;;1.15;0.90;;;20.90;99.90;;;;;;5067407;28;20051;-68
2023/08/19 06:18:24;;;;;;;2.25;1.33;;;21.00;99.90;;;;;;5065961;28;20066;-68
2023/08/19 06:20:50;;;;;;;1.42;0.80;;;21.00;99.90;;;;;;5069557;28;20503;-69
2023/08/19 06:23:19;;;;;;;2.95;1.17;;;21.00;99.90;;;;;;5063500;28;20119;-69
2023/08/19 06:25:50;;;;;;;1.48;0.98;;;21.00;99.90;;;;;;5066280;28;20040;-69
2023/08/19 06:28:18;;;;;;;1.83;1.10;;;21.10;99.90;;;;;;5064814;28;20857;-68
2023/08/19 06:30:44;;;;;;;1.45;0.70;;;21.10;99.90;;;;;;5065362;28;20044;-68
2023/08/19 06:33:11;;;;;;;1.17;0.77;;;21.10;99.90;;;;;;5067237;28;20043;-69
2023/08/19 06:35:37;;;;;;;1.45;0.95;;;21.10;99.90;;;;;;5051279;28;20511;-69
2023/08/19 06:38:13;;;;;;;1.25;0.88;;;21.10;99.90;;;;;;5065332;28;20047;-69
2023/08/19 06:40:48;;;;;;;1.17;0.70;;;21.10;99.90;;;;;;5065040;28;20047;-68
2023/08/19 06:43:16;;;;;;;1.90;1.27;;;21.20;99.90;;;;;;5062120;28;20037;-69
2023/08/19 06:45:43;;;;;;;2.10;1.08;;;21.10;99.90;;;;;;5050626;28;20123;-69
2023/08/19 06:48:10;;;;;;;1.50;1.00;;;21.20;99.90;;;;;;5063318;28;20044;-70
2023/08/19 06:50:36;;;;;;;1.45;0.90;;;21.20;99.90;;;;;;5069348;28;20041;-69
2023/08/19 06:53:04;;;;;;;2.00;1.42;;;21.30;99.90;;;;;;5061059;28;20043;-69
2023/08/19 06:55:30;;;;;;;0.80;0.45;;;21.30;99.90;;;;;;5067853;28;20396;-69
2023/08/19 06:58:03;;;;;;;1.67;1.00;;;21.40;99.90;;;;;;5061893;28;20072;-69
2023/08/19 07:00:32;;;;;;;1.20;0.60;;;21.40;99.90;;;;;;5066736;28;20041;-69
2023/08/19 07:02:58;;;;;;;0.88;0.70;;;21.40;99.90;;;;;;5064725;28;20044;-69
2023/08/19 07:05:29;;;;;;;2.22;1.27;;;21.50;99.90;;;;;;5066290;28;20129;-69
2023/08/19 07:07:57;;;;;;;1.33;0.90;;;21.50;99.90;;;;;;5064808;28;20078;-69
2023/08/19 07:10:24;;;;;;;1.35;0.57;;;21.60;99.90;;;;;;5067981;28;20108;-69
2023/08/19 07:12:50;;;;;;;1.58;0.75;;;21.60;99.90;;;;;;5063760;28;20401;-69
2023/08/19 07:15:16;;;;;;;1.70;0.70;;;21.60;99.90;;;;;;5065311;28;20044;-68
2023/08/19 07:17:47;;;;;;;1.63;0.82;;;21.60;99.90;;;;;;5065182;28;20043;-69
2023/08/19 07:20:21;;;;;;;2.28;0.93;;;21.70;99.90;;;;;;5065308;28;20048;-69
2023/08/19 07:22:52;;;;;;;1.55;0.90;;;21.70;99.90;;;;;;5067897;28;20048;-69
2023/08/19 07:25:19;;;;;;;1.23;0.60;;;21.90;99.90;;;;;;5065658;28;20121;-69
2023/08/19 07:27:45;;;;;;;1.17;0.75;;;21.90;99.90;;;;;;5041161;28;20040;-69
2023/08/19 07:30:12;;;;;;;0.93;0.50;;;22.00;99.90;;;;;;5062137;28;20045;-69
2023/08/19 07:32:38;;;;;;;4.03;0.68;;;22.00;99.90;;;;;;5066296;28;20055;-69
2023/08/19 07:35:05;;;;;;;1.50;0.70;;;22.10;99.90;;;;;;5066712;28;20040;-69
2023/08/19 07:37:32;;;;;;;0.60;0.32;;;22.20;99.90;;;;;;5067063;28;20046;-69
2023/08/19 07:39:59;;;;;;;2.03;0.68;;;22.30;99.90;;;;;;5063245;28;20048;-69
2023/08/19 07:42:27;;;;;;;0.75;0.40;;;22.30;99.90;;;;;;5064654;28;20347;-69
2023/08/19 07:44:53;;;;;;;3.35;0.55;;;22.40;99.90;;;;;;5063266;28;20050;-69
2023/08/19 07:47:19;;;;;;;1.58;0.93;;;22.50;99.90;;;;;;5046393;28;20221;-70
2023/08/19 07:49:45;;;;;;;1.42;0.38;;;22.50;99.90;;;;;;5052351;28;20036;-69
2023/08/19 07:52:10;;;;;;;1.10;0.50;;;22.60;99.90;;;;;;5063863;28;20040;-69
2023/08/19 07:54:36;;;;;;;2.38;0.73;;;22.70;99.90;;;;;;5064295;28;20384;-69
2023/08/19 07:57:02;;;;;;;0.60;0.50;;;22.70;99.90;;;;;;5042692;28;20060;-69
2023/08/19 07:59:28;;;;;;;0.90;0.68;;;22.80;99.90;;;;;;5066313;28;20052;-69
2023/08/19 08:01:54;;;;;;;1.15;0.52;;;22.80;99.90;;;;;;5064794;28;20048;-69
2023/08/19 08:04:21;;;;;;;0.50;0.30;;;22.80;99.90;;;;;;5063587;28;20051;-69
2023/08/19 08:06:48;;;;;;;0.70;0.50;;;22.90;99.90;;;;;;5066812;28;20036;-69
2023/08/19 08:09:14;;;;;;;1.10;0.52;;;23.00;99.90;;;;;;5060389;28;20040;-69
2023/08/19 08:11:41;;;;;;;1.33;0.85;;;23.10;99.90;;;;;;5064331;28;20051;-69
2023/08/19 08:14:07;;;;;;;1.33;0.50;;;23.20;99.90;;;;;;5061409;28;20037;-70
2023/08/19 08:16:33;;;;;;;1.08;0.55;;;23.20;99.90;;;;;;5065151;28;20508;-69
2023/08/19 08:18:58;;;;;;;2.30;0.52;;;23.30;99.90;;;;;;5061457;28;20037;-69
2023/08/19 08:21:24;;;;;;;0.90;0.57;;;23.50;99.90;;;;;;5066866;28;20115;-69
2023/08/19 08:23:50;;;;;;;0.95;0.57;;;23.60;99.90;;;;;;5063976;28;20103;-68
2023/08/19 08:26:16;;;;;;;0.77;0.45;;;23.70;99.90;;;;;;5066325;28;20130;-69
2023/08/19 08:28:43;;;;;;;1.60;0.50;;;23.80;99.90;;;;;;5066519;28;20051;-69
2023/08/19 08:31:09;;;;;;;1.77;0.50;;;23.80;99.90;;;;;;5062757;28;20055;-69
2023/08/19 08:33:34;;;;;;;1.30;0.63;;;23.90;99.90;;;;;;5068047;28;20049;-69
2023/08/19 08:36:00;;;;;;;0.93;0.50;;;23.90;99.90;;;;;;5068482;28;20095;-68
2023/08/19 08:38:27;;;;;;;1.17;0.50;;;24.00;99.90;;;;;;5067715;28;20048;-68
2023/08/19 08:40:52;;;;;;;0.63;0.30;;;24.10;99.90;;;;;;5068076;28;20068;-68
2023/08/19 08:43:18;;;;;;;0.60;0.40;;;24.10;99.90;;;;;;5064093;28;20075;-68
2023/08/19 08:45:45;;;;;;;1.73;0.65;;;24.30;99.90;;;;;;5066371;28;20039;-68
2023/08/19 08:48:11;;;;;;;0.43;0.30;;;24.40;99.90;;;;;;5065374;28;20036;-68
2023/08/19 08:50:38;;;;;;;1.48;0.60;;;24.50;99.90;;;;;;5063369;28;20032;-68
2023/08/19 08:53:04;;;;;;;1.48;0.50;;;24.60;99.90;;;;;;5069064;28;20032;-68
2023/08/19 08:55:30;;;;;;;4.13;0.65;;;24.70;99.90;;;;;;5069991;28;20028;-68
2023/08/19 08:57:56;;;;;;;0.63;0.40;;;24.90;99.90;;;;;;5067379;28;20057;-69
2023/08/19 09:00:22;;;;;;;0.68;0.40;;;25.00;99.90;;;;;;5066074;28;20459;-69
2023/08/19 09:02:50;;;;;;;2.05;0.65;;;25.00;99.90;;;;;;5071339;28;20032;-68
2023/08/19 09:05:19;;;;;;;0.80;0.50;;;25.10;99.90;;;;;;5064856;28;20047;-69
2023/08/19 09:07:49;;;;;;;0.85;0.45;;;25.20;99.90;;;;;;5067451;28;20385;-68
2023/08/19 09:10:18;;;;;;;0.70;0.30;;;25.30;99.90;;;;;;5069203;28;20036;-68
2023/08/19 09:12:49;;;;;;;0.43;0.43;;;25.30;99.90;;;;;;5068454;28;20035;-69
2023/08/19 09:15:17;;;;;;;0.88;0.52;;;25.40;99.90;;;;;;5069093;28;20040;-69
2023/08/19 09:17:44;;;;;;;1.38;0.63;;;25.50;99.90;;;;;;5071202;28;20119;-69
2023/08/19 09:20:12;;;;;;;0.80;0.40;;;25.60;99.90;;;;;;5068627;28;20045;-69
2023/08/19 09:22:42;;;;;;;1.20;0.63;;;25.60;99.90;;;;;;5066919;28;20564;-69
2023/08/19 09:25:13;;;;;;;0.50;0.28;;;25.60;99.90;;;;;;5066873;28;20060;-69
2023/08/19 09:27:39;;;;;;;1.08;0.40;;;25.60;99.90;;;;;;5069439;28;20049;-69
2023/08/19 09:30:05;;;;;;;0.55;0.30;;;25.60;99.90;;;;;;5066409;28;20048;-69
2023/08/19 09:32:33;;;;;;;0.90;0.43;;;25.60;99.90;;;;;;5069367;28;20507;-69
2023/08/19 09:35:07;;;;;;;1.65;0.43;;;25.70;99.90;;;;;;5067435;28;20520;-69
2023/08/19 09:37:35;;;;;;;1.55;0.45;;;25.90;99.90;;;;;;5070021;28;20526;-69
2023/08/19 09:40:10;;;;;;;1.38;0.75;;;26.10;99.90;;;;;;5067952;28;20094;-69
2023/08/19 09:42:37;;;;;;;1.15;0.40;;;26.20;99.90;;;;;;5065996;28;20522;-69
2023/08/19 09:45:07;;;;;;;0.57;0.40;;;26.30;99.90;;;;;;5066915;28;20131;-69
2023/08/19 09:47:49;;;;;;;0.52;0.20;;;26.50;99.90;;;;;;5068536;28;20106;-70
2023/08/19 09:50:19;;;;;;;1.05;0.40;;;26.70;99.90;;;;;;5064464;28;20333;-70
2023/08/19 09:52:55;;;;;;;0.95;0.20;;;26.80;99.90;;;;;;5071387;28;20062;-69
2023/08/19 09:55:26;;;;;;;0.65;0.30;;;26.70;99.90;;;;;;5064604;28;20074;-69
2023/08/19 09:57:52;;;;;;;0.43;0.40;;;26.60;99.90;;;;;;5069409;28;20418;-70
2023/08/19 10:00:18;;;;;;;1.35;0.40;;;26.50;99.90;;;;;;5070057;28;20057;-69
2023/08/19 10:02:44;;;;;;;0.88;0.50;;;26.30;99.90;;;;;;5070096;28;20037;-70
2023/08/19 10:05:10;;;;;;;0.35;0.10;;;26.10;99.90;;;;;;5069296;28;20074;-69
2023/08/19 10:07:40;;;;;;;0.50;0.30;;;26.10;99.90;;;;;;5068219;28;20587;-70
2023/08/19 10:10:10;;;;;;;3.17;0.60;;;26.00;99.90;;;;;;5067563;28;20095;-69
2023/08/19 10:12:39;;;;;;;1.90;0.50;;;25.90;99.90;;;;;;5064847;28;20036;-69
2023/08/19 10:15:08;;;;;;;0.50;0.25;;;25.70;99.90;;;;;;5064828;28;20045;-69
2023/08/19 10:17:39;;;;;;;0.77;0.40;;;25.60;99.90;;;;;;5068997;28;20116;-69
2023/08/19 10:20:11;;;;;;;1.52;0.45;;;25.50;99.90;;;;;;5067041;28;20041;-70
2023/08/19 10:22:41;;;;;;;1.10;0.47;;;25.40;99.90;;;;;;5069463;28;20127;-69
2023/08/19 10:25:09;;;;;;;0.68;0.40;;;25.30;99.90;;;;;;5063250;28;20130;-69
2023/08/19 10:27:36;;;;;;;0.93;0.57;;;25.30;99.90;;;;;;5069689;28;20502;-68
2023/08/19 10:30:28;;;;;;;1.95;0.65;;;25.20;99.90;;;;;;5067882;28;20045;-69
2023/08/19 10:32:53;;;;;;;0.57;0.30;;;25.20;99.90;;;;;;5066281;28;20040;-68
2023/08/19 10:35:19;;;;;;;3.20;0.50;;;25.10;99.90;;;;;;5066044;28;20038;-69
2023/08/19 10:37:50;;;;;;;1.00;0.40;;;25.00;99.90;;;;;;5065998;28;20509;-68
2023/08/19 10:40:24;;;;;;;0.68;0.40;;;25.00;99.90;;;;;;5066790;28;20103;-69
2023/08/19 10:43:08;;;;;;;0.93;0.45;;;24.90;99.90;;;;;;5068052;28;20040;-68
2023/08/19 10:45:36;;;;;;;1.25;0.73;;;25.00;99.90;;;;;;5066692;28;20039;-68
2023/08/19 10:48:02;;;;;;;0.55;0.30;;;25.00;99.90;;;;;;5068763;28;20044;-69
2023/08/19 10:50:34;;;;;;;1.45;0.65;;;25.10;99.90;;;;;;5065565;28;20443;-68
2023/08/19 10:53:01;;;;;;;0.65;0.30;;;25.10;99.90;;;;;;5066706;28;20125;-69
2023/08/19 10:55:27;;;;;;;0.80;0.40;;;25.10;99.90;;;;;;5067595;28;20110;-70
2023/08/19 10:57:54;;;;;;;1.05;0.30;;;25.10;99.90;;;;;;5067501;28;20049;-69
2023/08/19 11:00:23;;;;;;;0.43;0.30;;;25.10;99.90;;;;;;5068154;28;20072;-69
2023/08/19 11:02:50;;;;;;;1.95;0.77;;;25.30;99.90;;;;;;5066002;28;20139;-69
2023/08/19 11:05:28;;;;;;;0.77;0.35;;;25.40;99.90;;;;;;5068470;28;20040;-69
2023/08/19 11:07:54;;;;;;;1.35;0.77;;;25.70;99.90;;;;;;5067263;28;20048;-70
2023/08/19 11:10:20;;;;;;;1.30;0.40;;;26.10;99.90;;;;;;5068701;28;20387;-70
2023/08/19 11:12:48;;;;;;;1.27;0.50;;;26.50;99.90;;;;;;5063502;28;20604;-70
2023/08/19 11:15:23;;;;;;;1.23;0.55;;;26.90;99.90;;;;;;5066130;28;20420;-70
2023/08/19 11:17:49;;;;;;;0.85;0.50;;;27.00;99.90;;;;;;5069125;28;20166;-70
2023/08/19 11:20:15;;;;;;;1.52;0.65;;;27.00;99.90;;;;;;5063893;28;20076;-70
2023/08/19 11:22:49;;;;;;;1.30;0.47;;;27.00;99.90;;;;;;5068671;28;20057;-70
2023/08/19 11:25:15;;;;;;;1.77;0.50;;;27.00;99.90;;;;;;5069718;28;20044;-70
2023/08/19 11:27:41;;;;;;;0.98;0.63;;;26.90;99.90;;;;;;5067792;28;20488;-70
2023/08/19 11:30:11;;;;;;;1.75;0.90;;;26.70;99.90;;;;;;5057197;28;20048;-70
2023/08/19 11:32:37;;;;;;;1.10;0.70;;;26.70;99.90;;;;;;5065442;28;20043;-70
2023/08/19 11:35:03;;;;;;;0.88;0.60;;;26.60;99.90;;;;;;5062224;28;20045;-70
2023/08/19 11:37:29;;;;;;;1.17;0.65;;;26.60;99.90;;;;;;5067675;28;20044;-70
2023/08/19 11:39:55;;;;;;;1.77;1.13;;;26.60;99.90;;;;;;5063387;28;20046;-69
2023/08/19 11:42:21;;;;;;;1.33;0.80;;;26.80;99.90;;;;;;5067772;28;20351;-70
2023/08/19 11:44:46;;;;;;;1.55;1.02;;;26.90;99.90;;;;;;5065790;28;20045;-69
2023/08/19 11:47:14;;;;;;;1.85;1.25;;;27.00;99.90;;;;;;5062557;28;20127;-69
2023/08/19 11:49:43;;;;;;;2.08;0.90;;;27.40;99.90;;;;;;5066678;28;20317;-70
2023/08/19 11:52:09;;;;;;;2.13;1.08;;;28.00;99.90;;;;;;5061931;28;20039;-70
2023/08/19 11:54:35;;;;;;;2.15;1.20;;;28.90;99.90;;;;;;5067088;28;20028;-70
2023/08/19 11:57:02;;;;;;;1.70;0.95;;;29.30;99.90;;;;;;5066676;28;20310;-70
2023/08/19 11:59:29;;;;;;;3.72;1.67;;;29.50;99.90;;;;;;5066973;28;20048;-70
2023/08/19 12:01:56;;;;;;;1.77;0.93;;;29.60;99.90;;;;;;5064246;28;20499;-70
2023/08/19 12:04:22;;;;;;;1.58;1.17;;;29.60;99.90;;;;;;5063426;28;20071;-70
2023/08/19 12:06:49;;;;;;;2.00;1.10;;;29.40;99.90;;;;;;5066633;28;20033;-70
2023/08/19 12:09:29;;;;;;;2.70;1.52;;;29.00;99.90;;;;;;5065833;28;20051;-70
2023/08/19 12:12:01;;;;;;;2.15;1.35;;;28.70;99.90;;;;;;5063807;28;20093;-70
2023/08/19 12:14:27;;;;;;;1.92;1.13;;;28.40;99.90;;;;;;5065093;28;20085;-70
2023/08/19 12:16:52;;;;;;;5.18;2.47;;;28.00;99.90;;;;;;5066068;28;20507;-70
2023/08/19 12:19:19;;;;;;;3.10;2.05;;;27.70;99.90;;;;;;5069746;28;20096;-70
2023/08/19 12:21:45;;;;;;;3.42;1.92;;;27.50;99.90;;;;;;5066517;28;20049;-70
2023/08/19 12:24:10;;;;;;;3.22;1.70;;;27.20;99.90;;;;;;5068864;28;20051;-70
2023/08/19 12:26:36;;;;;;;5.70;2.33;;;27.10;99.90;;;;;;5068494;28;20059;-70
2023/08/19 12:29:02;;;;;;;6.30;3.00;;;26.90;99.90;;;;;;5073056;28;20508;-69
2023/08/19 12:31:28;;;;;;;4.50;2.85;;;26.70;99.90;;;;;;5068708;28;20045;-70
2023/08/19 12:33:53;;;;;;;6.95;3.33;;;26.50;99.90;;;;;;5071927;28;20086;-70
2023/08/19 12:36:19;;;;;;;5.75;3.13;;;26.50;99.90;;;;;;5071756;28;20048;-70
2023/08/19 12:38:45;;;;;;;4.93;3.33;;;26.30;99.90;;;;;;5071662;28;20036;-70
2023/08/19 12:41:11;;;;;;;7.35;2.70;;;26.20;99.90;;;;;;5069137;28;20399;-70
2023/08/19 12:43:37;;;;;;;7.15;3.78;;;26.10;99.90;;;;;;5055726;28;20248;-70
2023/08/19 12:46:03;;;;;;;4.68;2.47;;;25.90;99.90;;;;;;5071398;28;20033;-70
2023/08/19 12:48:29;;;;;;;4.25;2.45;;;25.80;99.90;;;;;;5071941;28;20095;-70